PWSweather.com
Personal Weather Stations
Station Observations
KCOGRAND2
Redlands, Southcamp Road & Dakota Circle, Grand Junction, CO 81507

Redlands, Southcamp Road & Dakota CircleGrand Junction, CO 81507

Lat: 39.055, Lon: -108.637

Elevation: 4870

Station Type: RadioShack WX200

Latest ConditionsUpdated 3:54:30 AM MST Sunday, Jan 21, 2018
Currently Today's Max Today's Min Today's Average
Temperature 29.8°F-1.2°C 36.7°F2.6°C 29.3°F-1.5°C 32.8°F0.4°C
Dew Point 22.3°F-5.4°C 33.4°F0.8°C 21.7°F-5.7°C 30.4°F-0.9°C
Winds 9.0 mph E14.5 kmh E 11.0 mph E17.7 kmh E - 5.5 mph 8.9 kmh
Wind Gusts 15.9 mph25.6 kmh 21.0 mph33.8 kmh - -
Humidity 73% 100% 71% 91%
Pressure 24.80 in839.8 mb 24.80 in839.8 mb 24.77 in838.8 mb -
Hour Temp Dew Point Humidity Winds Wind Gusts Pressure Precip Precip Rate Daily Precip Total
03:54 AM 29.8°F-1.2°C 22.3°F-5.4°C 73% 9.0 mph E14.5 kmh E 15.9 mph25.6 kmh 24.80 in839.8 mb 0.00 in0.0 mm 0.00 in0.0 mm 0.00 in0.0 mm
03:49 AM 29.3°F-1.5°C 22.5°F-5.3°C 75% 9.0 mph E14.5 kmh E 14.3 mph23.0 kmh 24.80 in839.8 mb 0.00 in0.0 mm 0.00 in0.0 mm 0.00 in0.0 mm
03:44 AM 29.7°F-1.3°C 22.1°F-5.5°C 73% 10.0 mph E16.1 kmh E 16.3 mph26.2 kmh 24.80 in839.8 mb 0.00 in0.0 mm 0.00 in0.0 mm 0.00 in0.0 mm
03:39 AM 30.0°F-1.1°C 21.7°F-5.7°C 71% 11.0 mph E17.7 kmh E 21.0 mph33.8 kmh 24.80 in839.8 mb 0.00 in0.0 mm 0.00 in0.0 mm 0.00 in0.0 mm
03:34 AM 30.0°F-1.1°C 22.5°F-5.3°C 73% 10.0 mph E16.1 kmh E 20.6 mph33.2 kmh 24.80 in839.8 mb 0.00 in0.0 mm 0.00 in0.0 mm 0.00 in0.0 mm
03:29 AM 30.4°F-0.9°C 23.4°F-4.8°C 75% 10.0 mph E16.1 kmh E 14.8 mph23.8 kmh 24.80 in839.8 mb 0.00 in0.0 mm 0.00 in0.0 mm 0.00 in0.0 mm
03:24 AM 30.4°F-0.9°C 23.4°F-4.8°C 75% 11.0 mph E17.7 kmh E 18.1 mph29.1 kmh 24.80 in839.8 mb 0.00 in0.0 mm 0.00 in0.0 mm 0.00 in0.0 mm
03:19 AM 30.6°F-0.8°C 24.3°F-4.3°C 77% 11.0 mph E17.7 kmh E 18.6 mph29.9 kmh 24.80 in839.8 mb 0.00 in0.0 mm 0.00 in0.0 mm 0.00 in0.0 mm
03:14 AM 31.1°F-0.5°C 26.8°F-2.9°C 84% 10.0 mph E16.1 kmh E 19.5 mph31.4 kmh 24.80 in839.8 mb 0.00 in0.0 mm 0.00 in0.0 mm 0.00 in0.0 mm
03:09 AM 31.3°F-0.4°C 29.5°F-1.4°C 93% 6.0 mph E9.7 kmh E 18.6 mph29.9 kmh 24.80 in839.8 mb 0.00 in0.0 mm 0.00 in0.0 mm 0.00 in0.0 mm
03:04 AM 31.6°F-0.2°C 30.6°F-0.8°C 96% 4.0 mph E6.4 kmh E 6.9 mph11.1 kmh 24.80 in839.8 mb 0.00 in0.0 mm 0.00 in0.0 mm 0.00 in0.0 mm
02:59 AM 31.8°F-0.1°C 30.7°F-0.7°C 96% 5.0 mph SE8.0 kmh SE 8.7 mph14.0 kmh 24.80 in839.8 mb 0.00 in0.0 mm 0.00 in0.0 mm 0.00 in0.0 mm
02:54 AM 32.4°F0.2°C 31.3°F-0.4°C 96% 4.0 mph SE6.4 kmh SE 7.4 mph11.9 kmh 24.80 in839.8 mb 0.00 in0.0 mm 0.00 in0.0 mm 0.00 in0.0 mm
02:49 AM 32.5°F0.3°C 31.3°F-0.4°C 95% 5.0 mph SE8.0 kmh SE 6.9 mph11.1 kmh 24.80 in839.8 mb 0.00 in0.0 mm 0.00 in0.0 mm 0.00 in0.0 mm
02:44 AM 32.5°F0.3°C 31.3°F-0.4°C 95% 4.0 mph SE6.4 kmh SE 6.9 mph11.1 kmh 24.80 in839.8 mb 0.00 in0.0 mm 0.00 in0.0 mm 0.00 in0.0 mm
02:39 AM 32.5°F0.3°C 31.3°F-0.4°C 95% 2.0 mph SE3.2 kmh SE 8.3 mph13.4 kmh 24.77 in838.8 mb 0.00 in0.0 mm 0.00 in0.0 mm 0.00 in0.0 mm
02:34 AM 32.5°F0.3°C 31.3°F-0.4°C 95% Calm Calm -- 24.77 in838.8 mb 0.00 in0.0 mm 0.00 in0.0 mm 0.00 in0.0 mm
02:29 AM 32.5°F0.3°C 31.3°F-0.4°C 95% Calm Calm -- 24.77 in838.8 mb 0.00 in0.0 mm 0.00 in0.0 mm 0.00 in0.0 mm
02:24 AM 32.5°F0.3°C 31.3°F-0.4°C 95% 1.0 mph SE1.6 kmh SE -- 24.77 in838.8 mb 0.00 in0.0 mm 0.00 in0.0 mm 0.00 in0.0 mm
02:19 AM 32.5°F0.3°C 31.3°F-0.4°C 95% 3.0 mph SE4.8 kmh SE 5.4 mph8.7 kmh 24.77 in838.8 mb 0.00 in0.0 mm 0.00 in0.0 mm 0.00 in0.0 mm
02:14 AM 32.5°F0.3°C 31.3°F-0.4°C 95% 4.0 mph SE6.4 kmh SE 6.3 mph10.1 kmh 24.77 in838.8 mb 0.00 in0.0 mm 0.00 in0.0 mm 0.00 in0.0 mm
02:09 AM 32.4°F0.2°C 31.3°F-0.4°C 96% 6.0 mph SE9.7 kmh SE 8.7 mph14.0 kmh 24.77 in838.8 mb 0.00 in0.0 mm 0.00 in0.0 mm 0.00 in0.0 mm
02:04 AM 32.2°F0.1°C 31.5°F-0.3°C 97% 7.0 mph SE11.3 kmh SE 8.7 mph14.0 kmh 24.77 in838.8 mb 0.00 in0.0 mm 0.00 in0.0 mm 0.00 in0.0 mm
01:59 AM 32.2°F0.1°C 31.5°F-0.3°C 97% 8.0 mph SE12.9 kmh SE 12.5 mph20.1 kmh 24.77 in838.8 mb 0.00 in0.0 mm 0.00 in0.0 mm 0.00 in0.0 mm
01:54 AM 32.2°F0.1°C 32.2°F0.1°C 100% 7.0 mph SE11.3 kmh SE 13.4 mph21.6 kmh 24.77 in838.8 mb 0.00 in0.0 mm 0.00 in0.0 mm 0.00 in0.0 mm
01:49 AM 32.5°F0.3°C 32.5°F0.3°C 100% 7.0 mph SE11.3 kmh SE 12.1 mph19.5 kmh 24.77 in838.8 mb 0.00 in0.0 mm 0.00 in0.0 mm 0.00 in0.0 mm
01:44 AM 32.7°F0.4°C 32.7°F0.4°C 100% 7.0 mph SE11.3 kmh SE 11.6 mph18.7 kmh 24.77 in838.8 mb 0.00 in0.0 mm 0.00 in0.0 mm 0.00 in0.0 mm
01:39 AM 32.7°F0.4°C 32.0°F0.0°C 97% 4.0 mph SE6.4 kmh SE 10.1 mph16.3 kmh 24.77 in838.8 mb 0.00 in0.0 mm 0.00 in0.0 mm 0.00 in0.0 mm
01:34 AM 32.7°F0.4°C 32.0°F0.0°C 97% 4.0 mph SE6.4 kmh SE 4.9 mph7.9 kmh 24.77 in838.8 mb 0.00 in0.0 mm 0.00 in0.0 mm 0.00 in0.0 mm
01:29 AM 32.9°F0.5°C 32.2°F0.1°C 97% 3.0 mph S4.8 kmh S 6.3 mph10.1 kmh 24.77 in838.8 mb 0.00 in0.0 mm 0.00 in0.0 mm 0.00 in0.0 mm
01:24 AM 33.1°F0.6°C 32.4°F0.2°C 97% 2.0 mph SW3.2 kmh SW 4.0 mph6.4 kmh 24.77 in838.8 mb 0.00 in0.0 mm 0.00 in0.0 mm 0.00 in0.0 mm
01:19 AM 33.3°F0.7°C 32.5°F0.3°C 97% 2.0 mph SW3.2 kmh SW 4.0 mph6.4 kmh 24.77 in838.8 mb 0.00 in0.0 mm 0.00 in0.0 mm 0.00 in0.0 mm
01:14 AM 33.4°F0.8°C 32.7°F0.4°C 97% 3.0 mph SW4.8 kmh SW 5.8 mph9.3 kmh 24.77 in838.8 mb 0.00 in0.0 mm 0.00 in0.0 mm 0.00 in0.0 mm
01:09 AM 33.6°F0.9°C 32.9°F0.5°C 97% 4.0 mph S6.4 kmh S 6.3 mph10.1 kmh 24.77 in838.8 mb 0.00 in0.0 mm 0.00 in0.0 mm 0.00 in0.0 mm
01:04 AM 34.0°F1.1°C 32.9°F0.5°C 96% 5.0 mph SSE8.0 kmh SSE 7.8 mph12.6 kmh 24.77 in838.8 mb 0.00 in0.0 mm 0.00 in0.0 mm 0.00 in0.0 mm
12:59 AM 34.0°F1.1°C 32.9°F0.5°C 96% 5.0 mph SE8.0 kmh SE 8.7 mph14.0 kmh 24.77 in838.8 mb 0.00 in0.0 mm 0.00 in0.0 mm 0.00 in0.0 mm
12:54 AM 34.0°F1.1°C 32.9°F0.5°C 96% 5.0 mph SE8.0 kmh SE 6.9 mph11.1 kmh 24.77 in838.8 mb 0.00 in0.0 mm 0.00 in0.0 mm 0.00 in0.0 mm
12:49 AM 34.3°F1.3°C 33.3°F0.7°C 96% 6.0 mph SSE9.7 kmh SSE 7.8 mph12.6 kmh 24.77 in838.8 mb 0.00 in0.0 mm 0.00 in0.0 mm 0.00 in0.0 mm
12:44 AM 34.5°F1.4°C 33.4°F0.8°C 96% 7.0 mph S11.3 kmh S 9.2 mph14.8 kmh 24.77 in838.8 mb 0.00 in0.0 mm 0.00 in0.0 mm 0.00 in0.0 mm
12:39 AM 34.9°F1.6°C 33.3°F0.7°C 94% 6.0 mph S9.7 kmh S 9.2 mph14.8 kmh 24.77 in838.8 mb 0.00 in0.0 mm 0.00 in0.0 mm 0.00 in0.0 mm
12:34 AM 35.2°F1.8°C 33.1°F0.6°C 92% 7.0 mph SSW11.3 kmh SSW 9.2 mph14.8 kmh 24.77 in838.8 mb 0.00 in0.0 mm 0.00 in0.0 mm 0.00 in0.0 mm
12:29 AM 35.6°F2.0°C 33.3°F0.7°C 91% 6.0 mph SW9.7 kmh SW 9.6 mph15.4 kmh 24.77 in838.8 mb 0.00 in0.0 mm 0.00 in0.0 mm 0.00 in0.0 mm
12:24 AM 35.8°F2.1°C 32.9°F0.5°C 89% 3.0 mph SW4.8 kmh SW 6.7 mph10.8 kmh 24.77 in838.8 mb 0.00 in0.0 mm 0.00 in0.0 mm 0.00 in0.0 mm
12:19 AM 36.1°F2.3°C 32.9°F0.5°C 88% 3.0 mph SW4.8 kmh SW 4.5 mph7.2 kmh 24.77 in838.8 mb 0.00 in0.0 mm 0.00 in0.0 mm 0.00 in0.0 mm
12:14 AM 36.3°F2.4°C 32.9°F0.5°C 87% 4.0 mph S6.4 kmh S 6.9 mph11.1 kmh 24.77 in838.8 mb 0.00 in0.0 mm 0.00 in0.0 mm 0.00 in0.0 mm
12:09 AM 36.7°F2.6°C 32.5°F0.3°C 85% 4.0 mph SE6.4 kmh SE 5.4 mph8.7 kmh 24.77 in838.8 mb 0.00 in0.0 mm 0.00 in0.0 mm 0.00 in0.0 mm
12:04 AM 36.7°F2.6°C 32.5°F0.3°C 85% 4.0 mph S6.4 kmh S 8.3 mph13.4 kmh 24.77 in838.8 mb 0.00 in0.0 mm 0.00 in0.0 mm 0.00 in0.0 mm